Time;durP1;ratioP1;P1;durP2;ratioP2;P2;SDS_P1;SDS_P2;PMS_P1;PMS_P2;Temp;Humidity;BMP_temperature;BMP_pressure;BME280_temperature;BME280_humidity;BME280_pressure;Samples;Min_cycle;Max_cycle;Signal;HPM_P1;HPM_P2
2022/02/12 00:00:33;;;;;;;0.50;0.50;;;0.40;99.90;;;;;;5089131;28;20231;-71
2022/02/12 00:03:00;;;;;;;1.60;0.80;;;0.40;99.90;;;;;;5088729;28;20223;-71
2022/02/12 00:05:26;;;;;;;0.80;0.65;;;0.40;99.90;;;;;;5089139;28;20156;-71
2022/02/12 00:07:56;;;;;;;5.00;1.00;;;0.30;99.90;;;;;;5091610;28;20160;-71
2022/02/12 00:10:24;;;;;;;0.73;0.73;;;0.40;99.90;;;;;;5093019;28;20224;-71
2022/02/12 00:12:50;;;;;;;1.23;0.75;;;0.40;99.90;;;;;;5092880;28;20190;-71
2022/02/12 00:15:17;;;;;;;3.83;0.60;;;0.50;99.90;;;;;;5087042;28;20208;-71
2022/02/12 00:17:44;;;;;;;5.72;1.52;;;0.40;99.90;;;;;;5075020;28;20267;-71
2022/02/12 00:20:11;;;;;;;2.88;1.40;;;0.50;99.90;;;;;;5078603;28;20579;-71
2022/02/12 00:22:37;;;;;;;0.70;0.68;;;0.60;99.90;;;;;;5072236;28;20237;-71
2022/02/12 00:25:04;;;;;;;2.50;0.77;;;0.80;99.90;;;;;;5072331;28;20662;-71
2022/02/12 00:27:30;;;;;;;1.35;0.70;;;0.80;99.90;;;;;;5072293;28;20164;-71
2022/02/12 00:29:57;;;;;;;0.75;0.57;;;0.70;99.90;;;;;;5071854;28;20164;-71
2022/02/12 00:32:23;;;;;;;0.45;0.40;;;0.60;99.90;;;;;;5072216;28;20184;-71
2022/02/12 00:34:50;;;;;;;0.60;0.60;;;0.70;99.90;;;;;;5072327;28;20252;-71
2022/02/12 00:37:16;;;;;;;0.50;0.30;;;0.60;99.90;;;;;;5072045;28;20173;-71
2022/02/12 00:39:42;;;;;;;1.83;0.70;;;0.70;99.90;;;;;;5072043;28;20181;-70
2022/02/12 00:42:08;;;;;;;0.68;0.63;;;0.70;99.90;;;;;;5071371;28;20157;-70
2022/02/12 00:44:34;;;;;;;0.52;0.47;;;0.60;99.90;;;;;;5071995;28;20557;-71
2022/02/12 00:47:00;;;;;;;1.02;0.70;;;0.70;99.90;;;;;;5072126;28;20182;-71
2022/02/12 00:49:26;;;;;;;7.72;1.42;;;0.90;99.90;;;;;;5071937;28;20152;-71
2022/02/12 00:51:53;;;;;;;1.80;0.80;;;0.80;99.90;;;;;;5071186;28;20191;-70
2022/02/12 00:54:19;;;;;;;4.68;1.27;;;0.80;99.90;;;;;;5072065;28;20189;-70
2022/02/12 00:56:46;;;;;;;4.05;1.10;;;0.80;99.90;;;;;;5071896;28;20157;-70
2022/02/12 00:59:12;;;;;;;1.88;0.82;;;0.90;99.90;;;;;;5071595;28;20246;-70
2022/02/12 01:01:38;;;;;;;2.13;1.48;;;0.90;99.90;;;;;;5071789;28;20220;-70
2022/02/12 01:04:05;;;;;;;2.35;1.38;;;0.80;99.90;;;;;;5071993;28;20192;-70
2022/02/12 01:06:32;;;;;;;1.70;0.85;;;0.50;99.90;;;;;;5071654;28;20172;-70
2022/02/12 01:08:59;;;;;;;1.17;0.93;;;0.40;99.90;;;;;;5071593;28;20193;-70
2022/02/12 01:11:26;;;;;;;1.35;0.77;;;0.30;99.90;;;;;;5071597;28;20199;-71
2022/02/12 01:13:52;;;;;;;1.60;0.90;;;0.20;99.90;;;;;;5071704;28;20165;-71
2022/02/12 01:16:18;;;;;;;2.67;1.27;;;0.10;99.90;;;;;;5071658;28;20187;-71
2022/02/12 01:18:44;;;;;;;0.82;0.80;;;0.00;99.90;;;;;;5070266;28;20210;-71
2022/02/12 01:21:10;;;;;;;1.00;0.80;;;0.00;99.90;;;;;;5072324;28;20234;-70
2022/02/12 01:23:36;;;;;;;2.65;0.95;;;0.10;99.90;;;;;;5071546;28;20157;-70
2022/02/12 01:26:04;;;;;;;0.88;0.60;;;0.10;99.90;;;;;;5072920;28;20168;-70
2022/02/12 01:28:30;;;;;;;5.13;1.27;;;0.10;99.90;;;;;;5091705;28;20275;-70
2022/02/12 01:30:56;;;;;;;2.63;0.70;;;0.10;99.90;;;;;;5080844;28;20184;-71
2022/02/12 01:33:22;;;;;;;1.52;1.05;;;0.10;99.90;;;;;;5071219;28;20197;-71
2022/02/12 01:35:48;;;;;;;1.83;0.77;;;0.10;99.90;;;;;;5071287;28;20161;-70
2022/02/12 01:38:14;;;;;;;3.47;1.05;;;0.10;99.90;;;;;;5071111;28;20271;-70
2022/02/12 01:40:41;;;;;;;1.63;0.73;;;0.10;99.90;;;;;;5071205;28;20165;-70
2022/02/12 01:43:08;;;;;;;1.83;0.90;;;0.10;99.90;;;;;;5081897;28;20190;-70
2022/02/12 01:45:35;;;;;;;2.60;1.30;;;0.00;99.90;;;;;;5090877;28;20152;-70
2022/02/12 01:48:02;;;;;;;4.70;1.70;;;0.00;99.90;;;;;;5091153;28;20168;-70
2022/02/12 01:50:28;;;;;;;3.90;0.98;;;-0.10;99.90;;;;;;5089498;28;20161;-70
2022/02/12 01:52:54;;;;;;;1.73;0.85;;;-0.30;99.90;;;;;;5090636;28;20255;-70
2022/02/12 01:55:20;;;;;;;1.23;1.10;;;-0.30;99.90;;;;;;5091052;28;20192;-70
2022/02/12 01:57:46;;;;;;;2.03;1.00;;;-0.40;99.90;;;;;;5091073;28;20209;-70
2022/02/12 02:00:16;;;;;;;2.75;1.10;;;-0.50;99.90;;;;;;5090955;28;20152;-71
2022/02/12 02:02:42;;;;;;;1.92;0.95;;;-0.60;99.90;;;;;;5090666;28;20251;-71
2022/02/12 02:05:10;;;;;;;1.65;1.15;;;-0.60;99.90;;;;;;5090702;28;20249;-71
2022/02/12 02:07:38;;;;;;;1.42;1.33;;;-0.60;99.90;;;;;;5090760;28;20167;-71
2022/02/12 02:10:05;;;;;;;1.15;1.08;;;-0.50;99.90;;;;;;5090849;28;20164;-71
2022/02/12 02:12:31;;;;;;;4.65;1.13;;;-0.60;99.90;;;;;;5077317;28;20283;-71
2022/02/12 02:14:57;;;;;;;2.10;1.05;;;-0.70;99.90;;;;;;5070433;28;20203;-71
2022/02/12 02:17:22;;;;;;;2.58;1.33;;;-0.70;99.90;;;;;;5070651;28;20160;-71
2022/02/12 02:19:49;;;;;;;3.42;1.60;;;-0.80;99.90;;;;;;5070434;28;20162;-71
2022/02/12 02:22:16;;;;;;;2.35;1.13;;;-0.90;99.90;;;;;;5070561;28;20161;-71
2022/02/12 02:24:42;;;;;;;1.95;1.00;;;-0.90;99.90;;;;;;5070500;28;20192;-71
2022/02/12 02:27:18;;;;;;;3.88;0.95;;;-0.90;99.90;;;;;;5070420;28;20176;-71
2022/02/12 02:29:45;;;;;;;4.82;1.15;;;-0.80;99.90;;;;;;5069870;28;20158;-71
2022/02/12 02:32:12;;;;;;;1.55;1.08;;;-0.90;99.90;;;;;;5070062;28;20180;-70
2022/02/12 02:34:51;;;;;;;1.85;1.50;;;-0.90;99.90;;;;;;5069953;28;20188;-70
2022/02/12 02:37:18;;;;;;;1.73;1.08;;;-1.00;99.90;;;;;;5070263;28;20673;-70
2022/02/12 02:39:43;;;;;;;3.00;1.50;;;-1.10;99.90;;;;;;5070165;28;20149;-70
2022/02/12 02:42:09;;;;;;;4.13;1.85;;;-1.20;99.90;;;;;;5070118;28;20176;-70
2022/02/12 02:44:36;;;;;;;2.40;1.35;;;-1.20;99.90;;;;;;5069965;28;20256;-70
2022/02/12 02:47:33;;;;;;;2.45;1.33;;;-1.10;99.90;;;;;;5069936;28;20161;-70
2022/02/12 02:49:54;;;;;;;7.57;1.08;;;-1.10;99.90;;;;;;5069798;28;20183;-71
2022/02/12 02:57:51;;;;;;;3.95;0.95;;;-1.40;99.90;;;;;;5069601;28;20159;-72
2022/02/12 03:00:18;;;;;;;1.92;1.48;;;-1.40;99.90;;;;;;5069553;28;20168;-71
2022/02/12 03:02:46;;;;;;;2.25;1.55;;;-1.50;99.90;;;;;;5069309;28;20285;-71
2022/02/12 03:05:12;;;;;;;3.20;1.10;;;-1.60;99.90;;;;;;5069427;28;20194;-70
2022/02/12 03:07:38;;;;;;;5.03;1.30;;;-1.70;99.90;;;;;;5069520;28;20161;-70
2022/02/12 03:10:08;;;;;;;2.53;1.08;;;-1.70;99.90;;;;;;5069481;28;20612;-70
2022/02/12 03:12:34;;;;;;;7.40;1.08;;;-1.70;99.90;;;;;;5069249;28;20192;-70
2022/02/12 03:15:03;;;;;;;2.03;1.13;;;-1.70;99.90;;;;;;5069314;28;20649;-70
2022/02/12 03:17:28;;;;;;;2.20;1.00;;;-1.80;99.90;;;;;;5069370;28;20148;-70
2022/02/12 03:19:54;;;;;;;5.15;1.38;;;-1.80;99.90;;;;;;5069477;28;20163;-70
2022/02/12 03:22:20;;;;;;;1.67;1.10;;;-1.70;99.90;;;;;;5069524;28;20157;-70
2022/02/12 03:24:46;;;;;;;1.27;0.77;;;-1.70;99.90;;;;;;5069498;28;20207;-70
2022/02/12 03:27:12;;;;;;;0.90;0.77;;;-1.60;99.90;;;;;;5069250;28;20199;-70
2022/02/12 03:29:38;;;;;;;1.65;0.68;;;-1.60;99.90;;;;;;5069190;28;20225;-70
2022/02/12 03:32:04;;;;;;;2.30;0.82;;;-1.60;99.90;;;;;;5069048;28;20197;-70
2022/02/12 03:34:30;;;;;;;2.55;0.90;;;-1.60;99.90;;;;;;5069047;28;20189;-70
2022/02/12 03:36:56;;;;;;;1.98;1.00;;;-1.70;99.90;;;;;;5069144;28;20167;-71
2022/02/12 03:39:22;;;;;;;1.08;0.77;;;-1.70;99.90;;;;;;5069149;28;20187;-70
2022/02/12 03:41:48;;;;;;;0.98;0.82;;;-1.50;99.90;;;;;;5068325;28;20232;-70
2022/02/12 03:44:14;;;;;;;1.27;0.80;;;-1.40;99.90;;;;;;5069033;28;20219;-70
2022/02/12 03:46:40;;;;;;;1.83;0.90;;;-1.30;99.90;;;;;;5069062;28;20165;-70
2022/02/12 03:49:06;;;;;;;1.25;1.00;;;-1.40;99.90;;;;;;5069266;28;20172;-70
2022/02/12 03:51:32;;;;;;;1.67;1.10;;;-1.50;99.90;;;;;;5069047;28;20196;-70
2022/02/12 03:53:58;;;;;;;1.73;1.13;;;-1.60;99.90;;;;;;5068854;28;20196;-70
2022/02/12 03:56:23;;;;;;;3.00;0.90;;;-1.70;99.90;;;;;;5068885;28;20212;-70
2022/02/12 03:58:49;;;;;;;1.90;1.35;;;-1.70;99.90;;;;;;5067468;28;20200;-70
2022/02/12 04:01:15;;;;;;;1.20;1.10;;;-1.60;99.90;;;;;;5068594;28;20156;-70
2022/02/12 04:03:42;;;;;;;1.70;1.20;;;-1.30;99.90;;;;;;5048981;28;20174;-70
2022/02/12 04:06:08;;;;;;;3.42;1.10;;;-1.40;99.90;;;;;;5048937;28;20157;-70
2022/02/12 04:08:34;;;;;;;0.85;0.85;;;-1.50;99.90;;;;;;5048831;28;20193;-70
2022/02/12 04:10:59;;;;;;;1.25;1.13;;;-1.50;99.90;;;;;;5048761;28;20167;-70
2022/02/12 04:13:25;;;;;;;1.98;0.70;;;-1.60;99.90;;;;;;5048910;28;20190;-70
2022/02/12 04:15:51;;;;;;;1.25;0.55;;;-1.90;99.90;;;;;;5048913;28;20153;-70
2022/02/12 04:18:17;;;;;;;0.90;0.88;;;-1.90;99.90;;;;;;5048798;28;20650;-70
2022/02/12 04:20:44;;;;;;;0.73;0.60;;;-1.90;99.90;;;;;;5048853;28;20154;-70
2022/02/12 04:23:10;;;;;;;0.77;0.50;;;-1.90;99.90;;;;;;5048905;28;20165;-70
2022/02/12 04:25:36;;;;;;;1.23;1.05;;;-2.00;99.90;;;;;;5048815;28;20169;-70
2022/02/12 04:28:09;;;;;;;2.42;1.00;;;-2.00;99.90;;;;;;5048697;28;20166;-70
2022/02/12 04:30:37;;;;;;;2.30;1.00;;;-2.00;99.90;;;;;;5048613;28;20280;-70
2022/02/12 04:33:04;;;;;;;2.72;1.67;;;-2.10;99.90;;;;;;5048847;28;20216;-70
2022/02/12 04:35:30;;;;;;;0.65;0.50;;;-2.00;99.90;;;;;;5048540;28;20157;-70
2022/02/12 04:37:56;;;;;;;2.20;1.13;;;-2.10;99.90;;;;;;5048540;28;20170;-70
2022/02/12 04:40:22;;;;;;;1.50;0.65;;;-2.30;99.90;;;;;;5048335;28;20258;-70
2022/02/12 04:42:47;;;;;;;1.48;0.85;;;-2.20;99.90;;;;;;5048690;28;20181;-70
2022/02/12 04:45:13;;;;;;;2.60;0.98;;;-2.00;99.90;;;;;;5048473;28;20638;-70
2022/02/12 04:47:43;;;;;;;0.77;0.70;;;-1.60;99.90;;;;;;5048672;28;20188;-70
2022/02/12 04:50:10;;;;;;;1.13;0.77;;;-1.40;99.90;;;;;;5048323;28;20190;-70
2022/02/12 04:52:36;;;;;;;0.95;0.70;;;-1.50;99.90;;;;;;5048879;28;20239;-70
2022/02/12 04:55:04;;;;;;;1.80;0.52;;;-1.70;99.90;;;;;;5051990;28;20158;-70
2022/02/12 04:57:30;;;;;;;0.75;0.63;;;-1.80;99.90;;;;;;5052142;28;20161;-70
2022/02/12 04:59:56;;;;;;;0.70;0.60;;;-1.80;99.90;;;;;;5050593;28;20189;-70
2022/02/12 05:02:21;;;;;;;0.80;0.60;;;-1.80;99.90;;;;;;5060809;28;20227;-70
2022/02/12 05:04:47;;;;;;;2.78;1.45;;;-1.90;99.90;;;;;;5071593;28;20207;-70
2022/02/12 05:07:13;;;;;;;1.70;0.60;;;-1.90;99.90;;;;;;5071849;28;20255;-70
2022/02/12 05:09:39;;;;;;;0.98;0.70;;;-1.80;99.90;;;;;;5071599;28;20192;-70
2022/02/12 05:12:06;;;;;;;1.25;1.02;;;-1.50;99.90;;;;;;5071464;28;20250;-70
2022/02/12 05:14:33;;;;;;;2.25;0.85;;;-1.30;99.90;;;;;;5071695;28;20216;-70
2022/02/12 05:17:03;;;;;;;1.55;0.80;;;-1.30;99.90;;;;;;5071770;28;20183;-70
2022/02/12 05:19:29;;;;;;;2.85;0.70;;;-1.20;99.90;;;;;;5071576;28;20653;-70
2022/02/12 05:21:55;;;;;;;0.55;0.40;;;-1.20;99.90;;;;;;5071714;28;20287;-70
2022/02/12 05:24:22;;;;;;;0.75;0.75;;;-1.40;99.90;;;;;;5071599;28;20167;-70
2022/02/12 05:26:48;;;;;;;0.85;0.35;;;-1.60;99.90;;;;;;5071418;28;20163;-70
2022/02/12 05:29:14;;;;;;;1.55;0.65;;;-1.80;99.90;;;;;;5071580;28;20204;-71
2022/02/12 05:31:40;;;;;;;0.38;0.38;;;-2.00;99.90;;;;;;5071319;28;20189;-71
2022/02/12 05:34:05;;;;;;;0.80;0.75;;;-2.10;99.90;;;;;;5071357;28;20157;-70
2022/02/12 05:36:31;;;;;;;1.70;1.13;;;-2.20;99.90;;;;;;5071199;28;20210;-70
2022/02/12 05:38:58;;;;;;;3.85;1.30;;;-2.30;99.90;;;;;;5071145;28;20192;-70
2022/02/12 05:41:24;;;;;;;4.45;0.82;;;-2.40;99.90;;;;;;5070976;28;20168;-70
2022/02/12 05:43:50;;;;;;;3.45;1.10;;;-2.40;99.90;;;;;;5071037;28;20164;-70
2022/02/12 05:46:16;;;;;;;1.42;1.05;;;-2.40;99.90;;;;;;5070985;28;20606;-70
2022/02/12 05:48:43;;;;;;;2.05;1.20;;;-2.30;99.90;;;;;;5071019;28;20195;-70
2022/02/12 05:51:09;;;;;;;1.77;0.85;;;-2.40;99.90;;;;;;5071098;28;20157;-70
2022/02/12 05:53:35;;;;;;;3.58;1.58;;;-2.50;99.90;;;;;;5070838;28;20696;-70
2022/02/12 05:56:02;;;;;;;3.72;1.60;;;-2.60;99.90;;;;;;5070911;28;20259;-70
2022/02/12 05:58:28;;;;;;;3.10;0.80;;;-2.70;99.90;;;;;;5070779;28;20153;-70
2022/02/12 06:00:54;;;;;;;0.88;0.60;;;-2.40;99.90;;;;;;5070878;28;20191;-71
2022/02/12 06:03:20;;;;;;;1.95;0.80;;;-1.80;99.90;;;;;;5070520;28;20231;-70
2022/02/12 06:05:46;;;;;;;1.60;1.13;;;-1.60;99.90;;;;;;5069793;28;20165;-70
2022/02/12 06:08:13;;;;;;;1.38;0.85;;;-1.70;99.90;;;;;;5070541;28;20167;-70
2022/02/12 06:10:39;;;;;;;1.50;0.70;;;-1.80;99.90;;;;;;5070512;28;20192;-70
2022/02/12 06:13:05;;;;;;;3.55;2.08;;;-1.70;99.90;;;;;;5087272;28;20207;-71
2022/02/12 06:15:35;;;;;;;1.17;0.52;;;-1.60;99.90;;;;;;5097067;28;20187;-70
2022/02/12 06:18:03;;;;;;;1.05;0.65;;;-1.70;99.90;;;;;;5090403;28;20156;-72
2022/02/12 06:20:29;;;;;;;3.60;1.10;;;-1.70;99.90;;;;;;5090136;28;20222;-71
2022/02/12 06:22:55;;;;;;;1.67;1.52;;;-1.80;99.90;;;;;;5090311;28;20156;-71
2022/02/12 06:25:21;;;;;;;13.88;1.08;;;-1.70;99.90;;;;;;5090257;28;20229;-72
2022/02/12 06:27:47;;;;;;;2.38;0.73;;;-1.60;99.90;;;;;;5090284;28;20166;-72
2022/02/12 06:30:13;;;;;;;2.50;1.13;;;-1.60;99.90;;;;;;5090104;28;20217;-72
2022/02/12 06:32:39;;;;;;;1.33;0.73;;;-1.50;99.90;;;;;;5090039;28;20192;-69
2022/02/12 06:35:06;;;;;;;1.02;0.82;;;-1.50;99.90;;;;;;5090090;28;20246;-69
2022/02/12 06:37:32;;;;;;;2.28;0.95;;;-1.50;99.90;;;;;;5089937;28;20152;-69
2022/02/12 06:39:58;;;;;;;2.83;0.80;;;-1.50;99.90;;;;;;5089772;28;20242;-69
2022/02/12 06:42:24;;;;;;;2.85;1.08;;;-1.50;99.90;;;;;;5089829;28;20156;-69
2022/02/12 06:44:50;;;;;;;1.85;1.27;;;-1.50;99.90;;;;;;5089664;28;20183;-69
2022/02/12 06:47:17;;;;;;;2.15;1.05;;;-1.40;99.90;;;;;;5089828;28;20171;-69
2022/02/12 06:49:43;;;;;;;1.23;0.80;;;-1.10;99.90;;;;;;5088284;28;20196;-69
2022/02/12 06:52:09;;;;;;;1.42;1.17;;;-1.00;99.90;;;;;;5088233;28;20795;-69
2022/02/12 06:54:35;;;;;;;2.17;0.95;;;-0.90;99.90;;;;;;5087171;28;20215;-71
2022/02/12 06:57:01;;;;;;;0.65;0.65;;;-0.80;99.90;;;;;;5087943;28;20212;-71
2022/02/12 06:59:27;;;;;;;3.55;1.00;;;-0.80;99.90;;;;;;5088724;28;20191;-71
2022/02/12 07:01:53;;;;;;;1.92;1.40;;;-0.80;99.90;;;;;;5088923;28;20228;-70
2022/02/12 07:04:19;;;;;;;1.60;1.27;;;-0.80;99.90;;;;;;5089347;28;20182;-70
2022/02/12 07:06:45;;;;;;;5.38;1.00;;;-0.70;99.90;;;;;;5089401;28;20672;-70
2022/02/12 07:09:11;;;;;;;4.65;1.10;;;-0.50;99.90;;;;;;5089276;28;20196;-70
2022/02/12 07:11:38;;;;;;;1.77;1.10;;;-0.50;99.90;;;;;;5089354;28;20200;-71
2022/02/12 07:14:05;;;;;;;1.25;1.00;;;-0.30;99.90;;;;;;5089211;28;20171;-70
2022/02/12 07:16:31;;;;;;;1.90;1.58;;;-0.20;99.90;;;;;;5089037;28;20156;-71
2022/02/12 07:18:58;;;;;;;2.33;1.85;;;-0.10;99.90;;;;;;5074470;28;20211;-70
2022/02/12 07:21:23;;;;;;;2.65;1.27;;;0.10;99.90;;;;;;5079264;28;20248;-70
2022/02/12 07:23:49;;;;;;;2.50;1.95;;;0.20;99.90;;;;;;5077012;28;20207;-71
2022/02/12 07:26:15;;;;;;;3.08;1.17;;;0.30;99.90;;;;;;5068910;28;20236;-71
2022/02/12 07:28:42;;;;;;;4.03;1.52;;;1.00;99.90;;;;;;5068775;28;20196;-70
2022/02/12 07:31:18;;;;;;;2.38;1.13;;;1.70;99.90;;;;;;5068538;28;20223;-70
2022/02/12 07:33:45;;;;;;;2.20;0.90;;;1.70;99.90;;;;;;5069076;28;20163;-70
2022/02/12 07:36:11;;;;;;;2.30;0.93;;;1.80;99.90;;;;;;5068818;28;20610;-70
2022/02/12 07:38:38;;;;;;;6.55;1.30;;;1.50;99.90;;;;;;5068886;28;20203;-70
2022/02/12 07:41:06;;;;;;;7.43;1.15;;;1.40;99.90;;;;;;5068582;28;20160;-70
2022/02/12 07:43:32;;;;;;;4.28;1.67;;;1.40;99.90;;;;;;5068772;28;20161;-70
2022/02/12 07:46:00;;;;;;;1.65;0.80;;;1.70;99.90;;;;;;5068922;28;20176;-70
2022/02/12 07:48:26;;;;;;;5.78;1.67;;;1.90;99.90;;;;;;5068591;28;20160;-70
2022/02/12 07:50:54;;;;;;;2.03;1.05;;;1.90;99.90;;;;;;5068797;28;20220;-71
2022/02/12 07:53:21;;;;;;;4.47;1.73;;;1.90;99.90;;;;;;5068034;28;20193;-71
2022/02/12 07:55:47;;;;;;;5.10;1.08;;;3.70;99.90;;;;;;5068688;28;20183;-71
2022/02/12 07:58:13;;;;;;;3.75;1.35;;;5.00;99.90;;;;;;5068539;28;20161;-72
2022/02/12 08:00:39;;;;;;;2.20;1.00;;;4.50;99.90;;;;;;5068617;28;20192;-72
2022/02/12 08:03:05;;;;;;;3.17;1.23;;;4.30;99.90;;;;;;5068332;28;20220;-72
2022/02/12 08:05:31;;;;;;;2.28;1.15;;;4.20;99.90;;;;;;5068656;28;20165;-71
2022/02/12 08:07:57;;;;;;;2.90;1.63;;;4.20;99.90;;;;;;5068666;28;20358;-71
2022/02/12 08:13:07;;;;;;;3.85;1.63;;;4.10;99.90;;;;;;5077407;28;20199;-71
2022/02/12 08:15:33;;;;;;;6.78;1.30;;;4.10;99.90;;;;;;5075123;28;20200;-71
2022/02/12 08:17:59;;;;;;;3.15;1.17;;;4.20;99.90;;;;;;5088734;28;20168;-71
2022/02/12 08:20:25;;;;;;;1.95;1.40;;;4.40;99.90;;;;;;5088632;28;20188;-71
2022/02/12 08:22:51;;;;;;;1.95;1.20;;;4.40;99.90;;;;;;5086262;28;20180;-71
2022/02/12 08:25:18;;;;;;;1.73;1.00;;;4.50;99.90;;;;;;5080156;28;20293;-71
2022/02/12 08:27:44;;;;;;;3.13;1.35;;;4.50;99.90;;;;;;5087620;28;20204;-71
2022/02/12 08:30:10;;;;;;;6.22;1.88;;;4.70;99.90;;;;;;5089020;28;20244;-71
2022/02/12 08:32:41;;;;;;;5.10;1.10;;;5.70;99.90;;;;;;5088037;28;20264;-71
2022/02/12 08:35:10;;;;;;;5.22;1.42;;;8.50;99.90;;;;;;5087704;28;21427;-72
2022/02/12 08:37:39;;;;;;;2.53;2.05;;;10.20;99.90;;;;;;5088010;28;20188;-72
2022/02/12 08:40:10;;;;;;;2.40;1.50;;;13.20;95.40;;;;;;5090722;28;20297;-71
2022/02/12 08:42:36;;;;;;;2.13;1.02;;;15.20;93.30;;;;;;5090938;28;20211;-73
2022/02/12 08:45:07;;;;;;;1.92;0.93;;;16.70;92.20;;;;;;5092054;28;20211;-73
2022/02/12 08:47:34;;;;;;;3.00;1.60;;;16.90;90.80;;;;;;5091389;28;20160;-72
2022/02/12 08:49:59;;;;;;;3.80;1.63;;;17.70;90.10;;;;;;5091761;28;20182;-73
2022/02/12 08:52:25;;;;;;;1.65;1.30;;;18.50;87.90;;;;;;5091801;28;20200;-72
2022/02/12 08:54:52;;;;;;;4.50;1.45;;;17.30;88.10;;;;;;5087241;28;20192;-73
2022/02/12 08:57:18;;;;;;;3.85;1.30;;;17.70;87.80;;;;;;5087092;28;20207;-69
2022/02/12 08:59:44;;;;;;;16.92;2.40;;;18.20;87.70;;;;;;5090532;28;20570;-72
2022/02/12 09:02:10;;;;;;;2.17;1.27;;;19.10;85.10;;;;;;5090529;28;20220;-72
2022/02/12 09:04:36;;;;;;;3.28;1.48;;;19.80;85.00;;;;;;5087159;28;20219;-72
2022/02/12 09:07:03;;;;;;;3.60;1.20;;;20.00;83.30;;;;;;5088928;28;20198;-72
2022/02/12 09:09:29;;;;;;;4.03;1.27;;;20.80;82.10;;;;;;5086557;28;20200;-71
2022/02/12 09:11:57;;;;;;;5.20;1.40;;;19.90;80.70;;;;;;5086791;28;20818;-71
2022/02/12 09:14:24;;;;;;;3.17;1.23;;;19.90;81.60;;;;;;5090665;28;20547;-72
2022/02/12 09:16:50;;;;;;;2.50;1.17;;;20.40;81.10;;;;;;5088689;28;20200;-72
2022/02/12 09:19:16;;;;;;;1.70;0.98;;;20.30;79.00;;;;;;5090036;28;20188;-73
2022/02/12 09:21:42;;;;;;;2.47;1.60;;;19.20;81.80;;;;;;5073927;28;20216;-72
2022/02/12 09:24:08;;;;;;;4.78;1.13;;;19.60;81.90;;;;;;5070353;28;20188;-72
2022/02/12 09:26:34;;;;;;;7.40;1.30;;;19.50;79.50;;;;;;5075254;28;20245;-72
2022/02/12 09:29:03;;;;;;;3.92;1.50;;;18.70;80.60;;;;;;5088274;28;20200;-72
2022/02/12 09:31:29;;;;;;;3.47;1.85;;;18.30;82.30;;;;;;5086567;28;20191;-72
2022/02/12 09:33:55;;;;;;;7.90;2.15;;;18.00;82.00;;;;;;5090372;28;20191;-72
2022/02/12 09:36:21;;;;;;;8.77;2.58;;;17.10;83.30;;;;;;5090590;28;20161;-72
2022/02/12 09:38:48;;;;;;;5.65;2.17;;;16.10;86.40;;;;;;5082967;28;20195;-71
2022/02/12 09:41:15;;;;;;;6.30;2.92;;;15.60;87.90;;;;;;5076651;28;20200;-71
2022/02/12 09:43:43;;;;;;;10.50;2.63;;;14.30;90.30;;;;;;5084248;28;20200;-71
2022/02/12 09:46:14;;;;;;;4.82;2.30;;;14.20;90.50;;;;;;5090000;28;20164;-71
2022/02/12 09:48:40;;;;;;;6.13;2.20;;;13.80;90.90;;;;;;5089878;28;20163;-71
2022/02/12 09:51:06;;;;;;;5.53;2.40;;;13.50;91.40;;;;;;5084484;28;20201;-70
2022/02/12 09:53:33;;;;;;;3.35;2.45;;;12.90;92.30;;;;;;5088921;28;20298;-71
2022/02/12 09:55:59;;;;;;;8.60;2.28;;;12.40;92.90;;;;;;5089733;28;20184;-71
2022/02/12 09:58:25;;;;;;;3.30;2.22;;;12.60;92.70;;;;;;5088351;28;20156;-71
2022/02/12 10:00:51;;;;;;;3.05;2.00;;;13.00;92.10;;;;;;5088947;28;20167;-72
2022/02/12 10:03:17;;;;;;;3.55;1.60;;;12.40;92.60;;;;;;5089895;28;20299;-72
2022/02/12 10:05:51;;;;;;;5.63;2.72;;;12.50;92.80;;;;;;5089732;28;20188;-71
2022/02/12 10:08:17;;;;;;;9.07;2.42;;;12.80;92.50;;;;;;5090117;28;20176;-71
2022/02/12 10:10:45;;;;;;;7.25;1.63;;;12.70;92.70;;;;;;5089465;28;20156;-71
2022/02/12 10:13:23;;;;;;;6.15;1.75;;;12.00;93.00;;;;;;5089853;28;20198;-71
2022/02/12 10:15:58;;;;;;;4.85;1.23;;;12.30;92.80;;;;;;5078541;28;20203;-70
2022/02/12 10:18:26;;;;;;;3.53;1.27;;;12.10;92.70;;;;;;5069687;28;20521;-71
2022/02/12 10:20:54;;;;;;;4.85;1.50;;;12.70;92.20;;;;;;5069245;28;20250;-70
2022/02/12 10:23:29;;;;;;;4.60;1.15;;;12.50;92.30;;;;;;5069698;28;20228;-71
2022/02/12 10:26:04;;;;;;;1.80;1.27;;;12.40;92.20;;;;;;5069330;28;20184;-71
2022/02/12 10:28:32;;;;;;;2.72;0.68;;;12.90;91.50;;;;;;5073712;28;20228;-71
2022/02/12 10:30:59;;;;;;;1.33;0.68;;;12.50;91.20;;;;;;5076681;28;20195;-71
2022/02/12 10:33:26;;;;;;;0.88;0.80;;;12.80;91.50;;;;;;5081751;28;20180;-71
2022/02/12 10:35:58;;;;;;;0.85;0.60;;;12.90;90.90;;;;;;5069263;28;20676;-71
2022/02/12 10:38:28;;;;;;;1.27;0.77;;;13.10;90.70;;;;;;5082110;28;20160;-71
2022/02/12 10:41:06;;;;;;;0.85;0.60;;;13.20;90.30;;;;;;5089493;28;20252;-71
2022/02/12 10:43:32;;;;;;;1.98;0.63;;;13.50;90.10;;;;;;5088820;28;20167;-71
2022/02/12 10:45:59;;;;;;;1.38;0.80;;;13.00;90.20;;;;;;5082220;28;20196;-70
2022/02/12 10:48:25;;;;;;;1.50;0.52;;;11.90;91.40;;;;;;5069552;28;20161;-71
2022/02/12 10:50:59;;;;;;;1.17;0.60;;;11.80;91.70;;;;;;5069141;28;20161;-71
2022/02/12 10:53:26;;;;;;;1.67;0.68;;;12.00;91.30;;;;;;5067257;28;20204;-70
2022/02/12 10:55:59;;;;;;;2.78;0.43;;;12.20;91.30;;;;;;5069174;28;20192;-72
2022/02/12 10:58:25;;;;;;;1.20;0.55;;;12.50;90.60;;;;;;5069415;28;20221;-71
2022/02/12 11:00:52;;;;;;;2.40;0.52;;;13.00;90.10;;;;;;5069374;28;20157;-71
2022/02/12 11:03:20;;;;;;;0.40;0.40;;;12.80;90.80;;;;;;5075297;28;20223;-71
2022/02/12 11:05:51;;;;;;;1.30;0.60;;;12.40;90.50;;;;;;5088130;28;20192;-72
2022/02/12 11:08:22;;;;;;;2.13;0.80;;;12.10;91.30;;;;;;5071271;28;20172;-71
2022/02/12 11:10:48;;;;;;;1.05;0.63;;;12.70;90.90;;;;;;5075113;28;20180;-71
2022/02/12 11:13:15;;;;;;;0.82;0.60;;;12.00;91.40;;;;;;5068560;28;20188;-71
2022/02/12 11:15:41;;;;;;;0.73;0.47;;;12.80;91.50;;;;;;5087470;28;20196;-71
2022/02/12 11:18:18;;;;;;;1.42;0.55;;;12.60;91.00;;;;;;5088806;28;20168;-71
2022/02/12 11:20:45;;;;;;;2.47;0.60;;;12.30;91.60;;;;;;5088931;28;20156;-71
2022/02/12 11:23:20;;;;;;;1.35;0.77;;;12.40;92.00;;;;;;5088617;28;20156;-72
2022/02/12 11:25:50;;;;;;;1.13;0.60;;;12.90;90.40;;;;;;5085694;28;20191;-72
2022/02/12 11:28:18;;;;;;;0.63;0.47;;;13.50;90.70;;;;;;5072502;28;20239;-72
2022/02/12 11:30:45;;;;;;;1.65;0.77;;;14.70;90.40;;;;;;5086038;28;20168;-72
2022/02/12 11:33:23;;;;;;;0.63;0.50;;;14.80;88.90;;;;;;5082801;28;20203;-72
2022/02/12 11:36:11;;;;;;;0.75;0.40;;;13.90;87.80;;;;;;5067646;28;20190;-72
2022/02/12 11:38:39;;;;;;;0.68;0.65;;;13.70;90.10;;;;;;5069353;28;20184;-73
2022/02/12 11:41:24;;;;;;;1.30;0.60;;;13.50;90.20;;;;;;5066570;28;20161;-73
2022/02/12 11:43:52;;;;;;;0.90;0.50;;;12.90;90.40;;;;;;5067831;28;20216;-72
2022/02/12 11:46:43;;;;;;;1.95;0.70;;;13.00;90.30;;;;;;5073610;28;20227;-72
2022/02/12 11:49:41;;;;;;;1.23;1.00;;;13.40;90.10;;;;;;5087257;28;20221;-73
2022/02/12 11:52:16;;;;;;;1.77;0.60;;;13.30;90.50;;;;;;5085537;28;20230;-73
2022/02/12 11:54:49;;;;;;;1.30;0.60;;;14.10;90.30;;;;;;5086440;28;20262;-73
2022/02/12 11:57:17;;;;;;;3.00;0.57;;;14.70;90.30;;;;;;5082346;28;20249;-73
2022/02/12 11:59:45;;;;;;;5.13;0.95;;;14.80;86.60;;;;;;5086361;28;20164;-73
2022/02/12 12:02:42;;;;;;;0.80;0.57;;;13.70;89.10;;;;;;5086033;28;20246;-73
2022/02/12 12:05:23;;;;;;;1.17;0.95;;;13.90;90.40;;;;;;5090686;28;20168;-73
2022/02/12 12:08:06;;;;;;;0.80;0.40;;;13.80;88.00;;;;;;5089874;28;20224;-73
2022/02/12 12:10:37;;;;;;;0.75;0.40;;;13.60;90.50;;;;;;5089546;28;20171;-71
2022/02/12 12:13:12;;;;;;;0.80;0.50;;;14.20;87.60;;;;;;5079015;28;20211;-71
2022/02/12 12:15:38;;;;;;;0.93;0.60;;;14.00;86.80;;;;;;5087738;28;20256;-70
2022/02/12 12:18:07;;;;;;;0.50;0.50;;;13.80;88.70;;;;;;5086324;28;20258;-70
2022/02/12 12:20:39;;;;;;;3.25;0.50;;;13.90;87.10;;;;;;5086142;28;20208;-70
2022/02/12 12:23:09;;;;;;;0.30;0.30;;;13.40;88.10;;;;;;5069887;28;20248;-70
2022/02/12 12:25:53;;;;;;;4.82;0.80;;;13.70;86.50;;;;;;5068929;28;20207;-70
2022/02/12 12:28:40;;;;;;;0.73;0.57;;;13.20;87.10;;;;;;5070701;28;20215;-69
2022/02/12 12:31:11;;;;;;;1.52;0.60;;;13.30;88.10;;;;;;5072171;28;20281;-71
2022/02/12 12:33:41;;;;;;;1.02;0.65;;;13.00;88.10;;;;;;5071976;28;20215;-72
2022/02/12 12:36:09;;;;;;;0.45;0.45;;;12.90;89.90;;;;;;5071989;28;20180;-72
2022/02/12 12:38:47;;;;;;;1.20;0.77;;;13.60;88.60;;;;;;5074276;28;20187;-71
2022/02/12 12:41:31;;;;;;;0.75;0.43;;;13.30;89.10;;;;;;5085981;28;20159;-71
2022/02/12 12:44:18;;;;;;;1.38;0.50;;;11.70;90.20;;;;;;5091927;28;20156;-71
2022/02/12 12:46:50;;;;;;;0.88;0.40;;;10.10;91.80;;;;;;5091825;28;20581;-71
2022/02/12 12:49:30;;;;;;;4.22;0.22;;;9.30;92.90;;;;;;5091315;28;20681;-71
2022/02/12 12:51:57;;;;;;;1.33;0.50;;;8.90;93.10;;;;;;5091973;28;20211;-70
2022/02/12 12:54:40;;;;;;;0.73;0.60;;;8.80;94.50;;;;;;5091951;28;20180;-71
2022/02/12 12:57:06;;;;;;;0.57;0.40;;;9.10;93.70;;;;;;5091889;28;20149;-71
2022/02/12 12:59:45;;;;;;;0.55;0.40;;;8.90;93.30;;;;;;5091071;28;20191;-72
2022/02/12 13:02:11;;;;;;;2.50;0.30;;;8.80;93.90;;;;;;5091580;28;20279;-71